• Join FlightAware (Why Join?)
  • Login
  • US Flag 
11:22PM EDT


 

Airport Tracker/Info


-or-


 

Live Flight TrackerFlight Track Log ✈ SWA350 ✈ 23-Apr-2013 ✈ KFLL - KMSY

Flight Track Log - Related Links

Times and Time Zones

All times are in EDT time to prevent confusion due to time zone crossing. See the SWA350 flight status page for this flight to view local times or setup timezone preferences in your user account.

Time Position Orientation Groundspeed Altitude Reporting Facility
EDT Latitude Longitude Course Direction KTS MPH feet Rate Location/Type
06:39AM 26.0750 -80.1319 78° East 175 201 800  Level Miami Center
06:41AM 26.0917 -80.0469 78° East 224 258 4,500 2,460 Climbing Miami Center
06:42AM 26.1406 -80.0992 316° Northwest 277 319 6,800 2,640 Climbing Miami Center
06:43AM 26.1892 -80.1653 309° West 300 345 10,100 2,580 Climbing Miami Center
06:44AM 26.2417 -80.2500 305° West 314 361 12,300 2,820 Climbing Miami Center
06:45AM 26.3000 -80.3422 305° West 334 384 15,800 2,820 Climbing Miami Center
06:46AM 26.3561 -80.4342 304° West 350 403 18,000 2,400 Climbing Miami Center
06:47AM 26.4144 -80.5311 304° West 363 418 20,600 2,160 Climbing Miami Center
06:48AM 26.4639 -80.6322 299° West 376 433 22,400 1,980 Climbing Miami Center
06:49AM 26.5156 -80.7408 298° West 396 456 24,600 1,800 Climbing Miami Center
06:50AM 26.5628 -80.8397 298° West 401 461 26,000 1,800 Climbing Miami Center
06:51AM 26.6142 -80.9508 297° West 401 461 28,200 2,220 Climbing Miami Center
06:52AM 26.6714 -81.0667 299° West 401 461 30,500 1,920 Climbing Miami Center
06:53AM 26.7225 -81.1756 298° West 393 452 32,100 1,680 Climbing Miami Center
06:54AM 26.7736 -81.2797 299° West 393 452 33,900 1,800 Climbing Miami Center
06:55AM 26.8167 -81.3719 298° West 383 441 35,700 1,020 Climbing Miami Center
06:56AM 26.8614 -81.4739 296° West 371 427 36,000 120 Climbing Miami Center
06:57AM 26.9036 -81.5894 292° West 366 421 36,000  Level Miami Center
06:58AM 26.9442 -81.6914 294° West 366 421 36,000  Level Miami Center
06:59AM 26.9825 -81.7978 292° West 366 421 36,000  Level Miami Center
07:00AM 27.0208 -81.8903 295° West 361 415 36,000  Level Miami Center
07:01AM 27.0633 -81.9925 295° West 361 415 36,000  Level Miami Center
07:02AM 27.1072 -82.1086 293° West 361 415 36,000  Level Miami Center
07:03AM 27.1472 -82.2108 294° West 361 415 36,000  Level Miami Center
07:04AM 27.1872 -82.3153 293° West 361 415 36,000  Level Miami Center
07:05AM 27.2250 -82.4150 293° West 366 421 36,000  Level Miami Center
07:06AM 27.2647 -82.5219 293° West 360 414 36,000  Level Miami Center
07:07AM 27.3044 -82.6244 294° West 360 414 36,000  Level Miami Center
07:08AM 27.3464 -82.7269 295° West 360 414 36,000  Level Miami Center
07:09AM 27.3800 -82.8222 292° West 360 414 36,000  Level Miami Center
07:10AM 27.4231 -82.9367 293° West 360 414 36,000  Level Miami Center
07:11AM 27.4603 -83.0414 292° West 360 414 36,000  Level Miami Center
07:12AM 27.4961 -83.1300 295° West 355 409 36,000  Level Miami Center
07:13AM 27.5353 -83.2350 293° West 355 409 36,000  Level Miami Center
07:14AM 27.5706 -83.3378 291° West 360 414 36,000  Level Miami Center
07:15AM 27.6097 -83.4406 293° West 360 414 36,000  Level Miami Center
07:16AM 27.6486 -83.5458 293° West 360 414 36,000  Level Miami Center
07:17AM 27.6897 -83.6489 294° West 360 414 36,000  Level Miami Center
07:19AM 27.7892 -83.9153 293° West 358 412 36,000  Level Jacksonville Center
07:20AM 27.8258 -84.0189 292° West 358 412 36,000  Level Jacksonville Center
07:21AM 27.8603 -84.1250 290° West 358 412 36,000  Level Jacksonville Center
07:22AM 27.9008 -84.2286 294° West 358 412 36,000  Level Jacksonville Center
07:23AM 27.9417 -84.3325 294° West 358 412 36,000  Level Jacksonville Center
07:24AM 27.9800 -84.4389 292° West 358 412 36,000  Level Jacksonville Center
07:25AM 28.0164 -84.5428 292° West 353 406 36,000  Level Jacksonville Center
07:26AM 28.0544 -84.6494 292° West 358 412 36,000  Level Jacksonville Center
07:27AM 28.0928 -84.7533 293° West 358 412 36,000 -60 Level Jacksonville Center
07:28AM 28.1267 -84.8483 292° West 363 418 35,900  Descending Jacksonville Center
07:29AM 28.1647 -84.9525 293° West 363 418 36,000  Climbing Jacksonville Center
07:30AM 28.2028 -85.0547 293° West 357 411 36,000  Level Jacksonville Center
07:31AM 28.2383 -85.1636 290° West 357 411 36,000  Level Jacksonville Center
07:32AM 28.2739 -85.2706 291° West 357 411 36,000  Level Jacksonville Center
07:33AM 28.3119 -85.3681 294° West 357 411 36,000  Level Jacksonville Center
07:34AM 28.3494 -85.4753 292° West 357 411 36,000  Level Jacksonville Center
07:35AM 28.3847 -85.5775 291° West 356 410 36,000  Level Jacksonville Center
07:36AM 28.4203 -85.6728 293° West 353 406 36,000  Level Jacksonville Center
07:37AM 28.4575 -85.7825 291° West 358 412 36,000  Level Jacksonville Center
07:38AM 28.4947 -85.8897 292° West 358 412 36,000  Level Jacksonville Center
07:39AM 28.5319 -85.9903 293° West 352 405 36,000  Level Jacksonville Center
07:40AM 28.5669 -86.0928 291° West 357 411 36,000  Level Jacksonville Center
07:41AM 28.6042 -86.1981 292° West 357 411 36,000  Level Jacksonville Center
07:42AM 28.6389 -86.3033 291° West 357 411 36,000 -60 Level Jacksonville Center
07:43AM 28.6758 -86.4064 292° West 357 411 35,900  Descending Jacksonville Center
07:44AM 28.7106 -86.5094 291° West 362 417 36,000  Climbing Jacksonville Center
07:45AM 28.7511 -86.6197 293° West 362 417 36,000  Level Jacksonville Center
07:46AM 28.7856 -86.7228 291° West 356 410 36,000  Level Jacksonville Center
07:47AM 28.8181 -86.8236 290° West 356 410 36,000  Level Jacksonville Center
07:48AM 28.8544 -86.9269 292° West 355 409 36,000  Level Jacksonville Center
07:49AM 28.8908 -87.0328 291° West 356 410 36,000  Level Jacksonville Center
07:50AM 28.9250 -87.1361 291° West 356 410 36,000  Level Jacksonville Center
07:51AM 28.9611 -87.2397 292° West 356 410 36,000  Level Jacksonville Center
07:53AM 29.0150 -87.4047 291° West 354 407 36,000  Level Houston Center
07:54AM 29.0506 -87.5097 291° West 355 409 36,000  Level Houston Center
07:55AM 29.0864 -87.6144 291° West 355 409 36,000  Level Houston Center
07:56AM 29.1208 -87.7206 290° West 355 409 36,000  Level Houston Center
07:57AM 29.1564 -87.8258 291° West 355 409 36,000  Level Houston Center
07:58AM 29.1908 -87.9311 291° West 355 409 36,000  Level Houston Center
07:59AM 29.2256 -88.0364 291° West 354 407 36,000  Level Houston Center
08:00AM 29.2658 -88.1592 291° West 356 410 36,000  Level Houston Center
08:01AM 29.3006 -88.2653 291° West 358 412 36,000  Level Houston Center
08:02AM 29.3350 -88.3717 290° West 356 410 36,000  Level Houston Center
08:03AM 29.3672 -88.4781 289° West 355 409 36,000 -120 Level Houston Center
08:04AM 29.4022 -88.5856 291° West 359 413 35,800 -1,500 Descending Houston Center
08:05AM 29.4372 -88.6917 291° West 358 412 33,000 -2,640 Descending Houston Center
08:06AM 29.4733 -88.8061 290° West 380 437 30,500 -2,400 Descending Houston Center
08:07AM 29.5097 -88.9219 290° West 386 444 28,200 -2,220 Descending Houston Center
08:08AM 29.5456 -89.0317 291° West 372 428 26,000 -2,400 Descending Houston Center
08:09AM 29.5858 -89.1619 290° West 366 421 23,400 -2,340 Descending Houston Center
08:10AM 29.6200 -89.2669 291° West 355 409 21,300 -2,040 Descending Houston Center
08:11AM 29.6500 -89.3681 289° West 341 392 19,300 -2,040 Descending Houston Center
08:12AM 29.6753 -89.4450 291° West 328 377 17,800 -1,920 Descending Houston Center
08:12AM 29.6825 -89.4678 290° West 335 386 17,400 -1,980 Descending Houston Center
08:13AM 29.7058 -89.5442 289° West 331 381 15,800 -2,100 Descending Houston Center
08:13AM 29.7153 -89.5669 296° West 333 383 15,300 -2,700 Descending Houston Center
08:14AM 29.7614 -89.6350 308° West 328 377 12,800 -2,700 Descending Houston Center
08:15AM 29.8231 -89.7281 307° West 339 390 10,400 -1,620 Descending Houston Center
08:16AM 29.8792 -89.8136 307° West 325 374 9,200 -1,260 Descending Houston Center
08:17AM 29.9225 -89.8794 307° West 279 321 7,900 -1,500 Descending Houston Center
08:17AM 29.9267 -89.8856 308° West 301 346 7,700 -1,500 Descending Houston Center
08:18AM 29.9686 -89.9517 306° West 279 321 6,400 -1,500 Descending Houston Center
08:19AM 29.9739 -89.9572 318° Northwest 288 331 6,200 -1,500 Descending Houston Center
08:19AM 30.0147 -90.0219 306° West 273 314 4,900 -1,800 Descending Houston Center
08:20AM 30.0289 -90.0417 310° West 279 321 4,400 -1,140 Descending Houston Center
08:20AM 30.0586 -90.0897 306° West 267 307 3,800 -780 Descending Houston Center
08:21AM 30.0756 -90.1058 321° Northwest 269 310 3,600 -840 Descending Houston Center
08:21AM 30.1086 -90.1428 316° Northwest 222 255 3,000 -900 Descending Houston Center
08:22AM 30.1114 -90.1608 280° West 250 288 2,700 -1,020 Descending Houston Center
08:22AM 30.0981 -90.2106 253° West 211 243 2,000 -900 Descending Houston Center
08:23AM 30.0919 -90.2225 239° Southwest 218 251 1,800 -660 Descending Houston Center
08:23AM 30.0589 -90.2289 189° South 117 135 1,300 -720 Descending Houston Center
08:24AM 30.0278 -90.2397 197° South 120 138 600 -720 Descending Houston Center
08:25AM 30.0194 -90.2419 193° South 140 161 400 -600 Descending Houston Center